sensor_id;sensor_type;location;lat;lon;timestamp;P1;durP1;ratioP1;P2;durP2;ratioP2
50213;SDS011;36103;54.176;12.070;2022-10-22T00:00:24;4.13;;;2.90;;
50213;SDS011;36103;54.176;12.070;2022-10-22T00:01:26;8.43;;;3.30;;
50213;SDS011;36103;54.176;12.070;2022-10-22T00:02:27;7.60;;;3.13;;
50213;SDS011;36103;54.176;12.070;2022-10-22T00:03:29;5.47;;;3.50;;
50213;SDS011;36103;54.176;12.070;2022-10-22T00:04:29;7.80;;;3.63;;
50213;SDS011;36103;54.176;12.070;2022-10-22T00:05:31;5.57;;;3.50;;
50213;SDS011;36103;54.176;12.070;2022-10-22T00:06:31;5.33;;;3.37;;
50213;SDS011;36103;54.176;12.070;2022-10-22T00:07:33;4.67;;;3.70;;
50213;SDS011;36103;54.176;12.070;2022-10-22T00:08:33;9.00;;;3.50;;
50213;SDS011;36103;54.176;12.070;2022-10-22T00:09:34;5.83;;;3.60;;
50213;SDS011;36103;54.176;12.070;2022-10-22T00:10:35;5.63;;;4.00;;
50213;SDS011;36103;54.176;12.070;2022-10-22T00:11:37;6.47;;;3.67;;
50213;SDS011;36103;54.176;12.070;2022-10-22T00:12:38;7.50;;;3.90;;
50213;SDS011;36103;54.176;12.070;2022-10-22T00:13:39;5.97;;;3.03;;
50213;SDS011;36103;54.176;12.070;2022-10-22T00:14:41;5.60;;;3.57;;
50213;SDS011;36103;54.176;12.070;2022-10-22T00:15:43;4.83;;;3.40;;
50213;SDS011;36103;54.176;12.070;2022-10-22T00:16:43;5.57;;;3.83;;
50213;SDS011;36103;54.176;12.070;2022-10-22T00:17:45;7.93;;;3.90;;
50213;SDS011;36103;54.176;12.070;2022-10-22T00:18:46;6.17;;;3.33;;
50213;SDS011;36103;54.176;12.070;2022-10-22T00:19:47;7.03;;;3.73;;
50213;SDS011;36103;54.176;12.070;2022-10-22T00:20:47;7.90;;;4.30;;
50213;SDS011;36103;54.176;12.070;2022-10-22T00:21:49;6.23;;;3.60;;
50213;SDS011;36103;54.176;12.070;2022-10-22T00:22:49;6.67;;;3.60;;
50213;SDS011;36103;54.176;12.070;2022-10-22T00:23:51;8.23;;;3.73;;
50213;SDS011;36103;54.176;12.070;2022-10-22T00:24:51;6.87;;;4.07;;
50213;SDS011;36103;54.176;12.070;2022-10-22T00:25:53;7.70;;;4.07;;
50213;SDS011;36103;54.176;12.070;2022-10-22T00:26:53;6.60;;;4.00;;
50213;SDS011;36103;54.176;12.070;2022-10-22T00:27:55;4.57;;;3.60;;
50213;SDS011;36103;54.176;12.070;2022-10-22T00:28:55;6.90;;;3.60;;
50213;SDS011;36103;54.176;12.070;2022-10-22T00:29:58;6.53;;;4.20;;
50213;SDS011;36103;54.176;12.070;2022-10-22T00:30:59;4.87;;;3.60;;
50213;SDS011;36103;54.176;12.070;2022-10-22T00:32:00;6.73;;;3.70;;
50213;SDS011;36103;54.176;12.070;2022-10-22T00:33:01;7.10;;;3.80;;
50213;SDS011;36103;54.176;12.070;2022-10-22T00:34:03;7.10;;;4.03;;
50213;SDS011;36103;54.176;12.070;2022-10-22T00:35:04;8.50;;;4.03;;
50213;SDS011;36103;54.176;12.070;2022-10-22T00:36:06;6.10;;;3.53;;
50213;SDS011;36103;54.176;12.070;2022-10-22T00:37:07;8.77;;;4.30;;
50213;SDS011;36103;54.176;12.070;2022-10-22T00:38:09;5.67;;;3.30;;
50213;SDS011;36103;54.176;12.070;2022-10-22T00:39:09;5.90;;;3.07;;
50213;SDS011;36103;54.176;12.070;2022-10-22T00:40:12;5.87;;;3.67;;
50213;SDS011;36103;54.176;12.070;2022-10-22T00:41:12;6.57;;;3.50;;
50213;SDS011;36103;54.176;12.070;2022-10-22T00:42:15;6.00;;;3.20;;
50213;SDS011;36103;54.176;12.070;2022-10-22T00:43:17;5.73;;;4.00;;
50213;SDS011;36103;54.176;12.070;2022-10-22T00:46:03;4.23;;;3.57;;
50213;SDS011;36103;54.176;12.070;2022-10-22T00:47:04;5.97;;;4.00;;
50213;SDS011;36103;54.176;12.070;2022-10-22T00:48:05;6.93;;;3.30;;
50213;SDS011;36103;54.176;12.070;2022-10-22T00:49:07;6.50;;;3.60;;
50213;SDS011;36103;54.176;12.070;2022-10-22T00:50:08;6.57;;;3.47;;
50213;SDS011;36103;54.176;12.070;2022-10-22T00:51:12;3.83;;;3.43;;
50213;SDS011;36103;54.176;12.070;2022-10-22T00:52:13;7.70;;;3.80;;
50213;SDS011;36103;54.176;12.070;2022-10-22T00:53:16;6.83;;;3.93;;
50213;SDS011;36103;54.176;12.070;2022-10-22T00:54:20;5.37;;;3.50;;
50213;SDS011;36103;54.176;12.070;2022-10-22T00:55:20;4.00;;;3.23;;
50213;SDS011;36103;54.176;12.070;2022-10-22T00:56:22;4.00;;;2.93;;
50213;SDS011;36103;54.176;12.070;2022-10-22T00:57:23;5.00;;;3.33;;
50213;SDS011;36103;54.176;12.070;2022-10-22T00:58:25;6.60;;;3.77;;
50213;SDS011;36103;54.176;12.070;2022-10-22T00:59:27;9.53;;;4.00;;
50213;SDS011;36103;54.176;12.070;2022-10-22T01:00:30;4.83;;;3.40;;
50213;SDS011;36103;54.176;12.070;2022-10-22T01:01:31;5.87;;;3.93;;
50213;SDS011;36103;54.176;12.070;2022-10-22T01:02:32;4.57;;;3.47;;
50213;SDS011;36103;54.176;12.070;2022-10-22T01:03:33;5.53;;;3.70;;
50213;SDS011;36103;54.176;12.070;2022-10-22T01:04:34;6.90;;;3.77;;
50213;SDS011;36103;54.176;12.070;2022-10-22T01:05:38;4.67;;;3.83;;
50213;SDS011;36103;54.176;12.070;2022-10-22T01:06:41;5.20;;;3.60;;
50213;SDS011;36103;54.176;12.070;2022-10-22T01:07:42;4.77;;;3.63;;
50213;SDS011;36103;54.176;12.070;2022-10-22T01:08:45;5.53;;;3.60;;
50213;SDS011;36103;54.176;12.070;2022-10-22T01:09:54;4.20;;;3.30;;
50213;SDS011;36103;54.176;12.070;2022-10-22T01:11:05;4.43;;;3.40;;
50213;SDS011;36103;54.176;12.070;2022-10-22T01:12:11;5.40;;;3.47;;
50213;SDS011;36103;54.176;12.070;2022-10-22T01:13:21;4.80;;;3.70;;
50213;SDS011;36103;54.176;12.070;2022-10-22T01:14:31;6.20;;;3.67;;
50213;SDS011;36103;54.176;12.070;2022-10-22T01:15:38;5.27;;;3.83;;
50213;SDS011;36103;54.176;12.070;2022-10-22T01:16:46;5.00;;;3.20;;
50213;SDS011;36103;54.176;12.070;2022-10-22T01:17:53;6.90;;;3.87;;
50213;SDS011;36103;54.176;12.070;2022-10-22T01:18:58;5.53;;;3.40;;
50213;SDS011;36103;54.176;12.070;2022-10-22T01:20:09;4.13;;;3.27;;
50213;SDS011;36103;54.176;12.070;2022-10-22T01:21:23;3.40;;;2.87;;
50213;SDS011;36103;54.176;12.070;2022-10-22T01:22:27;5.50;;;3.30;;
50213;SDS011;36103;54.176;12.070;2022-10-22T01:23:40;4.10;;;3.10;;
50213;SDS011;36103;54.176;12.070;2022-10-22T01:24:55;4.77;;;3.27;;
50213;SDS011;36103;54.176;12.070;2022-10-22T01:26:00;4.70;;;3.17;;
50213;SDS011;36103;54.176;12.070;2022-10-22T01:27:08;5.70;;;3.73;;
50213;SDS011;36103;54.176;12.070;2022-10-22T01:28:16;5.20;;;2.90;;
50213;SDS011;36103;54.176;12.070;2022-10-22T01:29:21;5.37;;;3.20;;
50213;SDS011;36103;54.176;12.070;2022-10-22T01:30:24;5.90;;;3.47;;
50213;SDS011;36103;54.176;12.070;2022-10-22T01:31:26;7.67;;;3.70;;
50213;SDS011;36103;54.176;12.070;2022-10-22T01:32:31;5.00;;;3.10;;
50213;SDS011;36103;54.176;12.070;2022-10-22T01:33:34;6.13;;;3.13;;
50213;SDS011;36103;54.176;12.070;2022-10-22T01:34:36;6.10;;;3.33;;
50213;SDS011;36103;54.176;12.070;2022-10-22T01:35:39;4.93;;;3.23;;
50213;SDS011;36103;54.176;12.070;2022-10-22T01:36:43;3.50;;;2.97;;
50213;SDS011;36103;54.176;12.070;2022-10-22T01:37:45;5.37;;;3.70;;
50213;SDS011;36103;54.176;12.070;2022-10-22T01:38:48;6.20;;;3.50;;
50213;SDS011;36103;54.176;12.070;2022-10-22T01:39:50;4.70;;;2.73;;
50213;SDS011;36103;54.176;12.070;2022-10-22T01:40:52;5.70;;;3.30;;
50213;SDS011;36103;54.176;12.070;2022-10-22T01:41:54;5.23;;;3.20;;
50213;SDS011;36103;54.176;12.070;2022-10-22T01:42:55;5.70;;;3.57;;
50213;SDS011;36103;54.176;12.070;2022-10-22T01:43:57;4.53;;;3.20;;
50213;SDS011;36103;54.176;12.070;2022-10-22T01:44:59;4.00;;;3.00;;
50213;SDS011;36103;54.176;12.070;2022-10-22T01:48:27;5.23;;;3.10;;
50213;SDS011;36103;54.176;12.070;2022-10-22T01:49:38;5.07;;;3.50;;
50213;SDS011;36103;54.176;12.070;2022-10-22T01:51:03;4.87;;;3.10;;
50213;SDS011;36103;54.176;12.070;2022-10-22T01:52:10;5.10;;;3.13;;
50213;SDS011;36103;54.176;12.070;2022-10-22T01:53:20;4.07;;;3.10;;
50213;SDS011;36103;54.176;12.070;2022-10-22T01:54:28;3.93;;;2.90;;
50213;SDS011;36103;54.176;12.070;2022-10-22T01:55:34;3.70;;;3.07;;
50213;SDS011;36103;54.176;12.070;2022-10-22T01:56:43;4.27;;;3.03;;
50213;SDS011;36103;54.176;12.070;2022-10-22T01:57:54;4.63;;;3.20;;
50213;SDS011;36103;54.176;12.070;2022-10-22T01:59:05;3.90;;;3.23;;
50213;SDS011;36103;54.176;12.070;2022-10-22T02:00:09;5.00;;;3.40;;
50213;SDS011;36103;54.176;12.070;2022-10-22T02:01:13;3.77;;;2.87;;
50213;SDS011;36103;54.176;12.070;2022-10-22T02:02:20;5.20;;;3.40;;
50213;SDS011;36103;54.176;12.070;2022-10-22T02:03:27;4.77;;;2.97;;
50213;SDS011;36103;54.176;12.070;2022-10-22T02:04:32;3.40;;;2.50;;
50213;SDS011;36103;54.176;12.070;2022-10-22T02:05:35;4.63;;;3.20;;
50213;SDS011;36103;54.176;12.070;2022-10-22T02:06:37;4.20;;;3.23;;
50213;SDS011;36103;54.176;12.070;2022-10-22T02:07:42;4.17;;;3.00;;
50213;SDS011;36103;54.176;12.070;2022-10-22T02:08:44;3.13;;;2.70;;
50213;SDS011;36103;54.176;12.070;2022-10-22T02:09:46;4.47;;;3.40;;
50213;SDS011;36103;54.176;12.070;2022-10-22T02:10:48;4.43;;;3.13;;
50213;SDS011;36103;54.176;12.070;2022-10-22T02:11:50;3.87;;;3.20;;
50213;SDS011;36103;54.176;12.070;2022-10-22T02:12:52;4.13;;;3.00;;
50213;SDS011;36103;54.176;12.070;2022-10-22T02:13:55;3.63;;;2.97;;
50213;SDS011;36103;54.176;12.070;2022-10-22T02:14:58;3.73;;;2.90;;
50213;SDS011;36103;54.176;12.070;2022-10-22T02:16:02;4.80;;;2.90;;
50213;SDS011;36103;54.176;12.070;2022-10-22T02:17:03;3.40;;;2.87;;
50213;SDS011;36103;54.176;12.070;2022-10-22T02:18:06;3.50;;;3.00;;
50213;SDS011;36103;54.176;12.070;2022-10-22T02:19:09;3.10;;;2.80;;
50213;SDS011;36103;54.176;12.070;2022-10-22T02:20:15;4.00;;;2.80;;
50213;SDS011;36103;54.176;12.070;2022-10-22T02:21:17;4.70;;;3.03;;
50213;SDS011;36103;54.176;12.070;2022-10-22T02:22:19;3.90;;;3.10;;
50213;SDS011;36103;54.176;12.070;2022-10-22T02:23:19;4.07;;;3.10;;
50213;SDS011;36103;54.176;12.070;2022-10-22T02:24:21;6.30;;;2.87;;
50213;SDS011;36103;54.176;12.070;2022-10-22T02:25:22;3.70;;;2.93;;
50213;SDS011;36103;54.176;12.070;2022-10-22T02:26:27;3.70;;;2.90;;
50213;SDS011;36103;54.176;12.070;2022-10-22T02:27:31;5.63;;;3.50;;
50213;SDS011;36103;54.176;12.070;2022-10-22T02:28:37;4.97;;;3.50;;
50213;SDS011;36103;54.176;12.070;2022-10-22T02:29:41;3.93;;;3.17;;
50213;SDS011;36103;54.176;12.070;2022-10-22T02:30:45;4.63;;;2.90;;
50213;SDS011;36103;54.176;12.070;2022-10-22T02:31:49;6.47;;;3.00;;
50213;SDS011;36103;54.176;12.070;2022-10-22T02:32:53;5.07;;;3.10;;
50213;SDS011;36103;54.176;12.070;2022-10-22T02:33:56;4.50;;;2.90;;
50213;SDS011;36103;54.176;12.070;2022-10-22T02:35:00;3.90;;;2.90;;
50213;SDS011;36103;54.176;12.070;2022-10-22T02:36:01;4.27;;;3.40;;
50213;SDS011;36103;54.176;12.070;2022-10-22T02:37:03;3.27;;;2.77;;
50213;SDS011;36103;54.176;12.070;2022-10-22T02:38:05;3.03;;;2.57;;
50213;SDS011;36103;54.176;12.070;2022-10-22T02:39:06;4.80;;;3.10;;
50213;SDS011;36103;54.176;12.070;2022-10-22T02:40:08;2.97;;;2.40;;
50213;SDS011;36103;54.176;12.070;2022-10-22T02:41:10;3.03;;;2.73;;
50213;SDS011;36103;54.176;12.070;2022-10-22T02:42:10;4.00;;;3.03;;
50213;SDS011;36103;54.176;12.070;2022-10-22T02:43:12;4.20;;;2.53;;
50213;SDS011;36103;54.176;12.070;2022-10-22T02:44:12;4.90;;;3.40;;
50213;SDS011;36103;54.176;12.070;2022-10-22T02:45:14;5.43;;;3.10;;
50213;SDS011;36103;54.176;12.070;2022-10-22T02:46:15;4.67;;;3.17;;
50213;SDS011;36103;54.176;12.070;2022-10-22T02:47:18;4.27;;;2.67;;
50213;SDS011;36103;54.176;12.070;2022-10-22T02:48:18;3.50;;;2.97;;
50213;SDS011;36103;54.176;12.070;2022-10-22T02:49:20;4.13;;;2.90;;
50213;SDS011;36103;54.176;12.070;2022-10-22T02:50:20;3.10;;;2.80;;
50213;SDS011;36103;54.176;12.070;2022-10-22T02:51:22;2.83;;;2.53;;
50213;SDS011;36103;54.176;12.070;2022-10-22T02:52:22;4.63;;;2.77;;
50213;SDS011;36103;54.176;12.070;2022-10-22T02:53:24;4.43;;;3.03;;
50213;SDS011;36103;54.176;12.070;2022-10-22T02:54:24;4.47;;;3.20;;
50213;SDS011;36103;54.176;12.070;2022-10-22T02:55:26;3.63;;;2.63;;
50213;SDS011;36103;54.176;12.070;2022-10-22T02:56:26;3.47;;;2.83;;
50213;SDS011;36103;54.176;12.070;2022-10-22T02:57:28;3.43;;;2.93;;
50213;SDS011;36103;54.176;12.070;2022-10-22T02:58:28;3.73;;;3.00;;
50213;SDS011;36103;54.176;12.070;2022-10-22T02:59:30;3.93;;;3.00;;
50213;SDS011;36103;54.176;12.070;2022-10-22T03:00:31;3.17;;;2.47;;
50213;SDS011;36103;54.176;12.070;2022-10-22T03:01:32;3.53;;;2.80;;
50213;SDS011;36103;54.176;12.070;2022-10-22T03:02:34;3.33;;;2.80;;
50213;SDS011;36103;54.176;12.070;2022-10-22T03:03:35;3.20;;;2.73;;
50213;SDS011;36103;54.176;12.070;2022-10-22T03:04:35;4.70;;;2.87;;
50213;SDS011;36103;54.176;12.070;2022-10-22T03:05:37;3.63;;;2.70;;
50213;SDS011;36103;54.176;12.070;2022-10-22T03:06:37;3.83;;;3.43;;
50213;SDS011;36103;54.176;12.070;2022-10-22T03:07:42;6.97;;;3.00;;
50213;SDS011;36103;54.176;12.070;2022-10-22T03:08:43;3.60;;;3.00;;
50213;SDS011;36103;54.176;12.070;2022-10-22T03:09:44;4.50;;;2.50;;
50213;SDS011;36103;54.176;12.070;2022-10-22T03:10:45;3.97;;;2.90;;
50213;SDS011;36103;54.176;12.070;2022-10-22T03:11:47;4.17;;;3.03;;
50213;SDS011;36103;54.176;12.070;2022-10-22T03:12:47;2.97;;;2.50;;
50213;SDS011;36103;54.176;12.070;2022-10-22T03:13:48;3.93;;;2.90;;
50213;SDS011;36103;54.176;12.070;2022-10-22T03:14:49;3.53;;;2.60;;
50213;SDS011;36103;54.176;12.070;2022-10-22T03:15:50;3.37;;;3.07;;
50213;SDS011;36103;54.176;12.070;2022-10-22T03:16:51;3.20;;;2.90;;
50213;SDS011;36103;54.176;12.070;2022-10-22T03:17:53;4.83;;;3.33;;
50213;SDS011;36103;54.176;12.070;2022-10-22T03:18:54;3.37;;;2.60;;
50213;SDS011;36103;54.176;12.070;2022-10-22T03:19:55;3.27;;;2.67;;
50213;SDS011;36103;54.176;12.070;2022-10-22T03:21:00;4.27;;;2.93;;
50213;SDS011;36103;54.176;12.070;2022-10-22T03:22:05;4.03;;;3.07;;
50213;SDS011;36103;54.176;12.070;2022-10-22T03:23:08;4.00;;;2.90;;
50213;SDS011;36103;54.176;12.070;2022-10-22T03:24:10;3.33;;;2.70;;
50213;SDS011;36103;54.176;12.070;2022-10-22T03:25:12;4.20;;;2.60;;
50213;SDS011;36103;54.176;12.070;2022-10-22T03:26:18;4.20;;;3.20;;
50213;SDS011;36103;54.176;12.070;2022-10-22T03:27:19;5.47;;;2.87;;
50213;SDS011;36103;54.176;12.070;2022-10-22T03:28:22;3.07;;;2.60;;
50213;SDS011;36103;54.176;12.070;2022-10-22T03:29:22;3.10;;;2.47;;
50213;SDS011;36103;54.176;12.070;2022-10-22T03:30:26;4.10;;;3.10;;
50213;SDS011;36103;54.176;12.070;2022-10-22T03:31:26;3.87;;;2.87;;
50213;SDS011;36103;54.176;12.070;2022-10-22T03:32:28;3.23;;;2.90;;
50213;SDS011;36103;54.176;12.070;2022-10-22T03:33:29;3.07;;;2.70;;
50213;SDS011;36103;54.176;12.070;2022-10-22T03:34:31;3.93;;;2.93;;
50213;SDS011;36103;54.176;12.070;2022-10-22T03:35:31;3.87;;;2.57;;
50213;SDS011;36103;54.176;12.070;2022-10-22T03:36:33;3.40;;;2.67;;
50213;SDS011;36103;54.176;12.070;2022-10-22T03:37:35;3.13;;;2.83;;
50213;SDS011;36103;54.176;12.070;2022-10-22T03:39:37;3.57;;;2.87;;
50213;SDS011;36103;54.176;12.070;2022-10-22T03:40:38;3.17;;;2.53;;
50213;SDS011;36103;54.176;12.070;2022-10-22T03:41:40;3.07;;;2.57;;
50213;SDS011;36103;54.176;12.070;2022-10-22T03:42:40;4.07;;;2.60;;
50213;SDS011;36103;54.176;12.070;2022-10-22T03:43:42;2.83;;;2.30;;
50213;SDS011;36103;54.176;12.070;2022-10-22T03:44:48;3.10;;;2.80;;
50213;SDS011;36103;54.176;12.070;2022-10-22T03:45:50;2.77;;;2.57;;
50213;SDS011;36103;54.176;12.070;2022-10-22T03:46:50;3.17;;;2.87;;
50213;SDS011;36103;54.176;12.070;2022-10-22T03:47:52;3.10;;;2.53;;
50213;SDS011;36103;54.176;12.070;2022-10-22T03:48:54;3.73;;;2.43;;
50213;SDS011;36103;54.176;12.070;2022-10-22T03:49:56;3.60;;;2.77;;
50213;SDS011;36103;54.176;12.070;2022-10-22T03:50:56;3.57;;;3.10;;
50213;SDS011;36103;54.176;12.070;2022-10-22T03:51:58;3.67;;;2.90;;
50213;SDS011;36103;54.176;12.070;2022-10-22T03:53:04;3.80;;;2.50;;
50213;SDS011;36103;54.176;12.070;2022-10-22T03:54:09;3.63;;;2.70;;
50213;SDS011;36103;54.176;12.070;2022-10-22T03:55:10;4.67;;;2.27;;
50213;SDS011;36103;54.176;12.070;2022-10-22T03:56:11;3.10;;;2.63;;
50213;SDS011;36103;54.176;12.070;2022-10-22T03:57:12;4.13;;;2.60;;
50213;SDS011;36103;54.176;12.070;2022-10-22T03:58:13;3.03;;;2.70;;
50213;SDS011;36103;54.176;12.070;2022-10-22T03:59:14;2.50;;;2.30;;
50213;SDS011;36103;54.176;12.070;2022-10-22T04:00:16;3.07;;;2.53;;
50213;SDS011;36103;54.176;12.070;2022-10-22T04:01:16;2.73;;;2.13;;
50213;SDS011;36103;54.176;12.070;2022-10-22T04:02:18;3.77;;;2.77;;
50213;SDS011;36103;54.176;12.070;2022-10-22T04:03:18;3.10;;;2.63;;
50213;SDS011;36103;54.176;12.070;2022-10-22T04:04:21;3.37;;;2.53;;
50213;SDS011;36103;54.176;12.070;2022-10-22T04:05:21;2.83;;;2.23;;
50213;SDS011;36103;54.176;12.070;2022-10-22T04:06:23;2.93;;;2.60;;
50213;SDS011;36103;54.176;12.070;2022-10-22T04:07:24;4.23;;;2.40;;
50213;SDS011;36103;54.176;12.070;2022-10-22T04:08:25;3.93;;;2.80;;
50213;SDS011;36103;54.176;12.070;2022-10-22T04:09:29;3.77;;;2.83;;
50213;SDS011;36103;54.176;12.070;2022-10-22T04:10:30;3.93;;;2.50;;
50213;SDS011;36103;54.176;12.070;2022-10-22T04:11:31;2.70;;;2.40;;
50213;SDS011;36103;54.176;12.070;2022-10-22T04:12:32;2.60;;;2.23;;
50213;SDS011;36103;54.176;12.070;2022-10-22T04:13:33;4.00;;;2.83;;
50213;SDS011;36103;54.176;12.070;2022-10-22T04:14:34;4.50;;;2.83;;
50213;SDS011;36103;54.176;12.070;2022-10-22T04:15:35;2.83;;;2.53;;
50213;SDS011;36103;54.176;12.070;2022-10-22T04:16:37;2.77;;;2.47;;
50213;SDS011;36103;54.176;12.070;2022-10-22T04:17:38;3.80;;;2.97;;
50213;SDS011;36103;54.176;12.070;2022-10-22T04:18:40;2.50;;;2.30;;
50213;SDS011;36103;54.176;12.070;2022-10-22T04:19:43;2.80;;;2.43;;
50213;SDS011;36103;54.176;12.070;2022-10-22T04:20:44;4.00;;;2.47;;
50213;SDS011;36103;54.176;12.070;2022-10-22T04:21:45;3.83;;;2.67;;
50213;SDS011;36103;54.176;12.070;2022-10-22T04:22:46;3.77;;;2.57;;
50213;SDS011;36103;54.176;12.070;2022-10-22T04:23:48;3.90;;;2.33;;
50213;SDS011;36103;54.176;12.070;2022-10-22T04:24:50;2.37;;;2.10;;
50213;SDS011;36103;54.176;12.070;2022-10-22T04:25:56;2.80;;;2.30;;
50213;SDS011;36103;54.176;12.070;2022-10-22T04:26:57;2.90;;;2.60;;
50213;SDS011;36103;54.176;12.070;2022-10-22T04:27:58;5.23;;;2.70;;
50213;SDS011;36103;54.176;12.070;2022-10-22T04:28:59;3.03;;;2.30;;
50213;SDS011;36103;54.176;12.070;2022-10-22T04:30:00;2.97;;;2.57;;
50213;SDS011;36103;54.176;12.070;2022-10-22T04:31:05;3.40;;;2.60;;
50213;SDS011;36103;54.176;12.070;2022-10-22T04:32:07;3.47;;;2.50;;
50213;SDS011;36103;54.176;12.070;2022-10-22T04:33:08;2.37;;;2.10;;
50213;SDS011;36103;54.176;12.070;2022-10-22T04:34:10;3.23;;;2.53;;
50213;SDS011;36103;54.176;12.070;2022-10-22T04:35:12;2.73;;;2.43;;
50213;SDS011;36103;54.176;12.070;2022-10-22T04:36:13;3.63;;;2.47;;
50213;SDS011;36103;54.176;12.070;2022-10-22T04:37:15;3.40;;;2.60;;
50213;SDS011;36103;54.176;12.070;2022-10-22T04:38:16;3.13;;;2.67;;
50213;SDS011;36103;54.176;12.070;2022-10-22T04:39:17;4.73;;;2.70;;
50213;SDS011;36103;54.176;12.070;2022-10-22T04:40:18;3.67;;;2.40;;
50213;SDS011;36103;54.176;12.070;2022-10-22T04:41:20;3.87;;;2.80;;
50213;SDS011;36103;54.176;12.070;2022-10-22T04:42:22;2.60;;;2.30;;
50213;SDS011;36103;54.176;12.070;2022-10-22T04:43:24;3.40;;;2.40;;
50213;SDS011;36103;54.176;12.070;2022-10-22T04:44:24;3.37;;;2.37;;
50213;SDS011;36103;54.176;12.070;2022-10-22T04:45:25;4.20;;;2.80;;
50213;SDS011;36103;54.176;12.070;2022-10-22T04:46:27;3.10;;;2.37;;
50213;SDS011;36103;54.176;12.070;2022-10-22T04:47:29;2.83;;;2.50;;
50213;SDS011;36103;54.176;12.070;2022-10-22T04:48:31;3.17;;;2.50;;
50213;SDS011;36103;54.176;12.070;2022-10-22T04:49:31;2.40;;;2.13;;
50213;SDS011;36103;54.176;12.070;2022-10-22T04:50:34;2.73;;;2.37;;
50213;SDS011;36103;54.176;12.070;2022-10-22T04:51:34;3.50;;;2.67;;
50213;SDS011;36103;54.176;12.070;2022-10-22T04:52:36;3.33;;;2.40;;
50213;SDS011;36103;54.176;12.070;2022-10-22T04:53:36;3.03;;;2.50;;
50213;SDS011;36103;54.176;12.070;2022-10-22T04:54:39;2.93;;;2.10;;
50213;SDS011;36103;54.176;12.070;2022-10-22T04:55:39;2.70;;;2.40;;
50213;SDS011;36103;54.176;12.070;2022-10-22T04:56:41;2.77;;;2.33;;
50213;SDS011;36103;54.176;12.070;2022-10-22T04:57:42;2.47;;;2.27;;
50213;SDS011;36103;54.176;12.070;2022-10-22T04:58:43;2.67;;;2.27;;
50213;SDS011;36103;54.176;12.070;2022-10-22T04:59:43;2.73;;;2.30;;
50213;SDS011;36103;54.176;12.070;2022-10-22T05:00:45;2.97;;;2.67;;
50213;SDS011;36103;54.176;12.070;2022-10-22T05:01:45;3.40;;;2.60;;
50213;SDS011;36103;54.176;12.070;2022-10-22T05:02:50;5.07;;;2.53;;
50213;SDS011;36103;54.176;12.070;2022-10-22T05:03:51;3.23;;;2.40;;
50213;SDS011;36103;54.176;12.070;2022-10-22T05:04:52;3.80;;;2.40;;
50213;SDS011;36103;54.176;12.070;2022-10-22T05:05:55;2.63;;;2.17;;
50213;SDS011;36103;54.176;12.070;2022-10-22T05:06:59;2.73;;;2.17;;
50213;SDS011;36103;54.176;12.070;2022-10-22T05:08:01;3.37;;;2.50;;
50213;SDS011;36103;54.176;12.070;2022-10-22T05:09:03;2.93;;;2.27;;
50213;SDS011;36103;54.176;12.070;2022-10-22T05:10:06;2.60;;;2.37;;
50213;SDS011;36103;54.176;12.070;2022-10-22T05:11:11;4.20;;;2.60;;
50213;SDS011;36103;54.176;12.070;2022-10-22T05:12:14;2.67;;;2.37;;
50213;SDS011;36103;54.176;12.070;2022-10-22T05:13:14;3.60;;;2.70;;
50213;SDS011;36103;54.176;12.070;2022-10-22T05:14:17;3.63;;;2.50;;
50213;SDS011;36103;54.176;12.070;2022-10-22T05:15:18;3.80;;;2.20;;
50213;SDS011;36103;54.176;12.070;2022-10-22T05:16:20;3.30;;;2.20;;
50213;SDS011;36103;54.176;12.070;2022-10-22T05:17:20;3.40;;;2.33;;
50213;SDS011;36103;54.176;12.070;2022-10-22T05:18:22;2.80;;;2.50;;
50213;SDS011;36103;54.176;12.070;2022-10-22T05:19:23;2.93;;;2.27;;
50213;SDS011;36103;54.176;12.070;2022-10-22T05:20:25;2.37;;;2.17;;
50213;SDS011;36103;54.176;12.070;2022-10-22T05:21:27;2.67;;;2.07;;
50213;SDS011;36103;54.176;12.070;2022-10-22T05:22:28;2.77;;;2.00;;
50213;SDS011;36103;54.176;12.070;2022-10-22T05:23:29;2.20;;;1.90;;
50213;SDS011;36103;54.176;12.070;2022-10-22T05:24:31;2.60;;;2.37;;
50213;SDS011;36103;54.176;12.070;2022-10-22T05:25:36;2.73;;;2.30;;
50213;SDS011;36103;54.176;12.070;2022-10-22T05:26:36;2.37;;;2.13;;
50213;SDS011;36103;54.176;12.070;2022-10-22T05:27:38;4.20;;;2.10;;
50213;SDS011;36103;54.176;12.070;2022-10-22T05:28:39;3.43;;;2.30;;
50213;SDS011;36103;54.176;12.070;2022-10-22T05:29:40;3.03;;;2.70;;
50213;SDS011;36103;54.176;12.070;2022-10-22T05:30:41;2.83;;;2.33;;
50213;SDS011;36103;54.176;12.070;2022-10-22T05:31:52;3.03;;;2.40;;
50213;SDS011;36103;54.176;12.070;2022-10-22T05:32:54;2.90;;;2.00;;
50213;SDS011;36103;54.176;12.070;2022-10-22T05:33:54;4.77;;;2.70;;
50213;SDS011;36103;54.176;12.070;2022-10-22T05:34:56;2.77;;;2.20;;
50213;SDS011;36103;54.176;12.070;2022-10-22T05:35:57;2.33;;;2.10;;
50213;SDS011;36103;54.176;12.070;2022-10-22T05:37:00;3.80;;;2.20;;
50213;SDS011;36103;54.176;12.070;2022-10-22T05:38:01;2.20;;;2.00;;
50213;SDS011;36103;54.176;12.070;2022-10-22T05:39:02;3.73;;;2.63;;
50213;SDS011;36103;54.176;12.070;2022-10-22T05:40:03;2.17;;;1.90;;
50213;SDS011;36103;54.176;12.070;2022-10-22T05:41:07;2.47;;;2.27;;
50213;SDS011;36103;54.176;12.070;2022-10-22T05:42:09;3.60;;;2.23;;
50213;SDS011;36103;54.176;12.070;2022-10-22T05:43:10;2.30;;;2.00;;
50213;SDS011;36103;54.176;12.070;2022-10-22T05:44:11;2.63;;;2.10;;
50213;SDS011;36103;54.176;12.070;2022-10-22T05:45:13;3.37;;;2.60;;
50213;SDS011;36103;54.176;12.070;2022-10-22T05:46:14;2.40;;;2.20;;
50213;SDS011;36103;54.176;12.070;2022-10-22T05:47:17;3.00;;;2.30;;
50213;SDS011;36103;54.176;12.070;2022-10-22T05:48:17;3.10;;;2.57;;
50213;SDS011;36103;54.176;12.070;2022-10-22T05:49:19;4.13;;;2.23;;
50213;SDS011;36103;54.176;12.070;2022-10-22T05:50:19;2.50;;;2.30;;
50213;SDS011;36103;54.176;12.070;2022-10-22T05:51:21;2.90;;;2.37;;
50213;SDS011;36103;54.176;12.070;2022-10-22T05:52:23;2.93;;;2.20;;
50213;SDS011;36103;54.176;12.070;2022-10-22T05:53:24;2.30;;;2.10;;
50213;SDS011;36103;54.176;12.070;2022-10-22T05:54:25;2.33;;;2.13;;
50213;SDS011;36103;54.176;12.070;2022-10-22T05:55:26;2.37;;;1.97;;
50213;SDS011;36103;54.176;12.070;2022-10-22T05:56:27;3.07;;;2.50;;
50213;SDS011;36103;54.176;12.070;2022-10-22T05:57:30;2.47;;;2.27;;
50213;SDS011;36103;54.176;12.070;2022-10-22T05:58:31;2.40;;;2.07;;
50213;SDS011;36103;54.176;12.070;2022-10-22T05:59:33;2.97;;;2.67;;
50213;SDS011;36103;54.176;12.070;2022-10-22T06:00:33;2.53;;;2.33;;
50213;SDS011;36103;54.176;12.070;2022-10-22T06:01:34;2.47;;;2.27;;
50213;SDS011;36103;54.176;12.070;2022-10-22T06:02:35;2.47;;;2.27;;
50213;SDS011;36103;54.176;12.070;2022-10-22T06:03:37;4.10;;;1.90;;
50213;SDS011;36103;54.176;12.070;2022-10-22T06:04:37;2.60;;;2.30;;
50213;SDS011;36103;54.176;12.070;2022-10-22T06:05:38;2.67;;;2.33;;
50213;SDS011;36103;54.176;12.070;2022-10-22T06:06:39;2.73;;;2.53;;
50213;SDS011;36103;54.176;12.070;2022-10-22T06:07:44;3.40;;;2.20;;
50213;SDS011;36103;54.176;12.070;2022-10-22T06:08:46;2.50;;;2.20;;
50213;SDS011;36103;54.176;12.070;2022-10-22T06:09:48;3.07;;;2.47;;
50213;SDS011;36103;54.176;12.070;2022-10-22T06:10:49;2.33;;;1.87;;
50213;SDS011;36103;54.176;12.070;2022-10-22T06:11:50;3.67;;;2.23;;
50213;SDS011;36103;54.176;12.070;2022-10-22T06:12:52;2.90;;;2.10;;
50213;SDS011;36103;54.176;12.070;2022-10-22T06:13:52;2.47;;;2.10;;
50213;SDS011;36103;54.176;12.070;2022-10-22T06:14:54;2.50;;;2.17;;